^^
Saratoga-Weather Station Historical Data
Daily Summary for February 1, 2020 Units:  English    Metric   Both
Daily Weekly Monthly Yearly Custom
  High: Low: Average:
Temperature: 55 °F 29.5 °F 41.4 °F
Dew Point: 28.4 °F 23 °F 25.2 °F
Humidity: 78% 31% 55%
Wind Speed: 9mph 0mph 1.2mph
Wind Gust: 11mph - -
Wind- - SSE
Pressure: 30.3 in 30 in -
Precipitation: 0 in    
Historical Graphs
 
 
Tabular Data for February 1, 2020
Time Temperature Dew Point Pressure Wind Wind Speed Wind Gust Humidity Rainfall Rate (Hourly) solar
00:01 35.1 °F 24.8 °F 30.3 in Calm     66% 0 in 0 W/m2
00:06 34.9 °F 25 °F 30.3 in Calm     67% 0 in 0 W/m2
00:11 34.7 °F 25.2 °F 30.3 in Calm     68% 0 in 0 W/m2
00:16 34.5 °F 25 °F 30.3 in Calm     68% 0 in 0 W/m2
00:21 34.5 °F 25 °F 30.3 in Calm     68% 0 in 0 W/m2
00:26 34.3 °F 25.2 °F 30.3 in Calm     69% 0 in 0 W/m2
00:31 34.3 °F 25.2 °F 30.3 in ESE 0.9 mph 1 mph 69% 0 in 0 W/m2
00:36 34.2 °F 25 °F 30.3 in Calm     69% 0 in 0 W/m2
00:41 34 °F 24.8 °F 30.3 in Calm     69% 0 in 0 W/m2
00:46 34.2 °F 25 °F 30.2 in Calm   2 mph 69% 0 in 0 W/m2
00:51 34.2 °F 25.3 °F 30.2 in ESE 0.9 mph 2 mph 70% 0 in 0 W/m2
00:56 34.2 °F 25.3 °F 30.2 in Calm   1 mph 70% 0 in 0 W/m2
01:01 34 °F 25.2 °F 30.2 in ESE 0.9 mph 1 mph 70% 0 in 0 W/m2
01:06 34 °F 24.8 °F 30.2 in Calm   1 mph 69% 0 in 0 W/m2
01:11 33.8 °F 25 °F 30.2 in Calm   1 mph 70% 0 in 0 W/m2
01:16 33.6 °F 24.8 °F 30.2 in Calm   1 mph 70% 0 in 0 W/m2
01:21 33.4 °F 24.8 °F 30.2 in ESE 0.9 mph 1 mph 70% 0 in 0 W/m2
01:26 33.3 °F 24.6 °F 30.2 in ESE 0.9 mph 1 mph 70% 0 in 0 W/m2
01:31 33.3 °F 24.6 °F 30.2 in Calm   1 mph 70% 0 in 0 W/m2
01:36 33.1 °F 24.4 °F 30.2 in Calm   1 mph 70% 0 in 0 W/m2
01:42 33.1 °F 24.4 °F 30.2 in Calm   1 mph 70% 0 in 0 W/m2
01:47 32.7 °F 24.4 °F 30.2 in Calm     71% 0 in 0 W/m2
01:52 32.7 °F 24.4 °F 30.2 in Calm   1 mph 71% 0 in 0 W/m2
01:57 32.7 °F 24.4 °F 30.2 in Calm     71% 0 in 0 W/m2
02:02 32.7 °F 24.4 °F 30.2 in Calm   1 mph 71% 0 in 0 W/m2
02:07 32.7 °F 24.4 °F 30.2 in Calm     71% 0 in 0 W/m2
02:12 32.5 °F 24.3 °F 30.2 in Calm     71% 0 in 0 W/m2
02:17 32.4 °F 24.3 °F 30.2 in Calm     72% 0 in 0 W/m2
02:22 32.2 °F 24.3 °F 30.2 in ESE 0.9 mph 1 mph 72% 0 in 0 W/m2
02:27 32.2 °F 24.3 °F 30.2 in Calm   1 mph 72% 0 in 0 W/m2
02:32 32.2 °F 24.3 °F 30.2 in Calm   1 mph 72% 0 in 0 W/m2
02:37 32 °F 24.3 °F 30.2 in Calm   1 mph 73% 0 in 0 W/m2
02:43 31.8 °F 24.1 °F 30.2 in Calm     73% 0 in 0 W/m2
02:48 31.6 °F 23.9 °F 30.2 in Calm     73% 0 in 0 W/m2
02:53 31.6 °F 24.3 °F 30.2 in Calm     74% 0 in 0 W/m2
02:58 31.6 °F 24.3 °F 30.2 in Calm     74% 0 in 0 W/m2
03:03 31.5 °F 24.1 °F 30.2 in Calm     74% 0 in 0 W/m2
03:08 31.5 °F 24.1 °F 30.2 in Calm     74% 0 in 0 W/m2
03:13 31.5 °F 24.1 °F 30.2 in Calm     74% 0 in 0 W/m2
03:18 31.6 °F 23.9 °F 30.2 in Calm   1 mph 73% 0 in 0 W/m2
03:23 31.8 °F 24.1 °F 30.2 in Calm   1 mph 73% 0 in 0 W/m2
03:28 31.8 °F 24.1 °F 30.2 in Calm     73% 0 in 0 W/m2
03:33 31.8 °F 23.9 °F 30.2 in Calm   1 mph 72% 0 in 0 W/m2
03:38 31.8 °F 24.1 °F 30.2 in Calm   2 mph 73% 0 in 0 W/m2
03:43 31.6 °F 23.9 °F 30.2 in Calm   1 mph 73% 0 in 0 W/m2
03:48 31.6 °F 23.9 °F 30.2 in Calm   1 mph 73% 0 in 0 W/m2
03:53 31.6 °F 23.9 °F 30.2 in SSE 0.9 mph 2 mph 73% 0 in 0 W/m2
03:58 32.2 °F 23.9 °F 30.2 in Calm   2 mph 71% 0 in 0 W/m2
04:03 32.5 °F 23.9 °F 30.2 in WNW 0.9 mph 2 mph 70% 0 in 0 W/m2
04:08 32.9 °F 24.3 °F 30.2 in SSW 0.9 mph 3 mph 70% 0 in 0 W/m2
04:13 32.9 °F 23.9 °F 30.2 in WNW 0.9 mph 1 mph 69% 0 in 0 W/m2
04:18 32.7 °F 24.1 °F 30.2 in Calm   3 mph 70% 0 in 0 W/m2
04:23 32.5 °F 23.9 °F 30.2 in West 0.9 mph 1 mph 70% 0 in 0 W/m2
04:28 32.5 °F 23.9 °F 30.2 in NW 0.9 mph 3 mph 70% 0 in 0 W/m2
04:33 32.9 °F 23.9 °F 30.2 in Calm   1 mph 69% 0 in 0 W/m2
04:38 32.9 °F 23.9 °F 30.2 in Calm   1 mph 69% 0 in 0 W/m2
04:43 32.9 °F 23.9 °F 30.2 in Calm   1 mph 69% 0 in 0 W/m2
04:48 32.9 °F 23.9 °F 30.2 in Calm   1 mph 69% 0 in 0 W/m2
04:53 32.5 °F 23.5 °F 30.2 in Calm     69% 0 in 0 W/m2
04:59 32.4 °F 23.7 °F 30.2 in Calm     70% 0 in 0 W/m2
05:04 32.2 °F 23.9 °F 30.2 in Calm     71% 0 in 0 W/m2
05:09 31.8 °F 23.5 °F 30.2 in West 0.9 mph 1 mph 71% 0 in 0 W/m2
05:14 31.8 °F 23.9 °F 30.2 in Calm   1 mph 72% 0 in 0 W/m2
05:19 31.6 °F 23.7 °F 30.2 in Calm   1 mph 72% 0 in 0 W/m2
05:24 31.3 °F 23.7 °F 30.2 in Calm     73% 0 in 0 W/m2
05:29 30.9 °F 23.4 °F 30.2 in West 0.9 mph 1 mph 73% 0 in 0 W/m2
05:34 30.7 °F 23.2 °F 30.2 in Calm   1 mph 73% 0 in 0 W/m2
05:39 30.7 °F 23.4 °F 30.2 in Calm     74% 0 in 0 W/m2
05:44 30.6 °F 23.2 °F 30.2 in Calm     74% 0 in 0 W/m2
05:49 30.6 °F 23.5 °F 30.2 in Calm   1 mph 75% 0 in 0 W/m2
05:54 30.4 °F 23.4 °F 30.2 in Calm   1 mph 75% 0 in 0 W/m2
05:59 30.4 °F 23.4 °F 30.2 in Calm     75% 0 in 0 W/m2
06:04 30.4 °F 23.4 °F 30.2 in Calm     75% 0 in 0 W/m2
06:09 30.4 °F 23.4 °F 30.2 in Calm   1 mph 75% 0 in 0 W/m2
06:14 30.2 °F 23.5 °F 30.2 in West 0.9 mph 2 mph 76% 0 in 0 W/m2
06:19 30.2 °F 23.5 °F 30.2 in Calm     76% 0 in 0 W/m2
06:24 30.4 °F 23.7 °F 30.2 in Calm   2 mph 76% 0 in 0 W/m2
06:29 30.2 °F 23.5 °F 30.2 in West 0.9 mph 1 mph 76% 0 in 0 W/m2
06:34 30 °F 23.4 °F 30.2 in West 0.9 mph 1 mph 76% 0 in 0 W/m2
06:39 29.8 °F 23.2 °F 30.2 in Calm   1 mph 76% 0 in 0 W/m2
06:44 30 °F 23.4 °F 30.2 in Calm   1 mph 76% 0 in 0 W/m2
06:49 30.2 °F 23.5 °F 30.2 in Calm   1 mph 76% 0 in 0 W/m2
06:54 30.4 °F 23.4 °F 30.2 in West 0.9 mph 1 mph 75% 0 in 0 W/m2
06:59 30.4 °F 23.4 °F 30.2 in Calm     75% 0 in 0 W/m2
07:04 30.6 °F 23.5 °F 30.2 in Calm     75% 0 in 0 W/m2
07:09 30.4 °F 23.4 °F 30.2 in Calm     75% 0 in 0 W/m2
07:14 30 °F 23 °F 30.2 in Calm     75% 0 in 5 W/m2
07:19 29.8 °F 23.2 °F 30.2 in Calm   1 mph 76% 0 in 7 W/m2
07:24 29.8 °F 23.2 °F 30.2 in Calm     76% 0 in 9 W/m2
07:30 29.7 °F 23 °F 30.2 in West 0.9 mph 1 mph 76% 0 in 11 W/m2
07:35 29.7 °F 23.4 °F 30.2 in Calm     77% 0 in 14 W/m2
07:40 29.5 °F 23.2 °F 30.2 in West 0.9 mph 1 mph 77% 0 in 16 W/m2
07:45 29.5 °F 23.2 °F 30.2 in Calm   1 mph 77% 0 in 18 W/m2
07:50 29.7 °F 23.7 °F 30.2 in Calm     78% 0 in 19 W/m2
07:55 29.7 °F 23.7 °F 30.2 in Calm     78% 0 in 21 W/m2
08:00 29.8 °F 23.5 °F 30.2 in Calm     77% 0 in 23 W/m2
08:05 30 °F 23.7 °F 30.2 in Calm     77% 0 in 25 W/m2
08:10 30.2 °F 23.5 °F 30.2 in Calm     76% 0 in 25 W/m2
08:15 30.6 °F 23.5 °F 30.2 in Calm     75% 0 in 26 W/m2
08:20 31.1 °F 23.7 °F 30.2 in Calm   1 mph 74% 0 in 135 W/m2
08:25 31.6 °F 23.9 °F 30.2 in West 0.9 mph 2 mph 73% 0 in 148 W/m2
08:30 32.4 °F 24.3 °F 30.2 in Calm     72% 0 in 160 W/m2
08:35 32.5 °F 24.3 °F 30.2 in Calm   2 mph 71% 0 in 174 W/m2
08:40 33.1 °F 24.4 °F 30.2 in Calm     70% 0 in 190 W/m2
08:46 33.3 °F 24.3 °F 30.2 in Calm   2 mph 69% 0 in 202 W/m2
08:51 33.6 °F 24.6 °F 30.2 in Calm   1 mph 69% 0 in 214 W/m2
08:56 34.2 °F 25 °F 30.2 in West 0.9 mph 1 mph 69% 0 in 227 W/m2
09:01 34.5 °F 24.6 °F 30.2 in Calm   2 mph 67% 0 in 241 W/m2
09:06 34.9 °F 24.6 °F 30.2 in Calm   1 mph 66% 0 in 253 W/m2
09:11 35.2 °F 25 °F 30.2 in Calm   2 mph 66% 0 in 267 W/m2
09:16 35.6 °F 25 °F 30.2 in Calm   1 mph 65% 0 in 279 W/m2
09:21 36.1 °F 25.2 °F 30.2 in NNE 0.9 mph 2 mph 64% 0 in 292 W/m2
09:26 36.7 °F 25.7 °F 30.2 in East 2 mph 3 mph 64% 0 in 302 W/m2
09:31 37.2 °F 25.3 °F 30.2 in East 6 mph 6 mph 62% 0 in 37 W/m2
09:36 37.6 °F 25 °F 30.2 in NE 2.9 mph 4 mph 60% 0 in 98 W/m2
09:41 38.1 °F 25 °F 30.2 in East 6 mph 6 mph 59% 0 in 345 W/m2
09:46 38.7 °F 24.8 °F 30.2 in NE 2 mph 3 mph 57% 0 in 357 W/m2
09:51 38.8 °F 25 °F 30.2 in NE 2 mph 7 mph 57% 0 in 367 W/m2
09:56 39.4 °F 25.3 °F 30.2 in NNW 0.9 mph 5 mph 57% 0 in 381 W/m2
10:01 39.9 °F 25.5 °F 30.2 in West 2 mph 3 mph 56% 0 in 392 W/m2
10:06 40.3 °F 25.9 °F 30.2 in NNW 2.9 mph 3 mph 56% 0 in 404 W/m2
10:11 40.5 °F 26.1 °F 30.2 in East 2 mph 4 mph 56% 0 in 415 W/m2
10:16 40.8 °F 25.5 °F 30.2 in ENE 2 mph 4 mph 54% 0 in 429 W/m2
10:21 41.5 °F 26.1 °F 30.2 in ESE 2.9 mph 4 mph 54% 0 in 438 W/m2
10:26 42.1 °F 26.2 °F 30.2 in Calm   2 mph 53% 0 in 452 W/m2
10:31 42.3 °F 25.9 °F 30.2 in ENE 4.9 mph 5 mph 52% 0 in 462 W/m2
10:36 42.4 °F 25.5 °F 30.2 in NE 2 mph 4 mph 51% 0 in 471 W/m2
10:41 43 °F 26.6 °F 30.2 in NW 0.9 mph 4 mph 52% 0 in 482 W/m2
10:46 43.5 °F 26.6 °F 30.2 in NE 2 mph 6 mph 51% 0 in 494 W/m2
10:51 43.3 °F 25.9 °F 30.2 in SE 2 mph 3 mph 50% 0 in 504 W/m2
10:56 44.2 °F 26.8 °F 30.2 in SE 0.9 mph 4 mph 50% 0 in 515 W/m2
11:01 45.1 °F 26.6 °F 30.2 in ENE 4 mph 5 mph 48% 0 in 524 W/m2
11:06 45.1 °F 26.1 °F 30.2 in East 2.9 mph 4 mph 47% 0 in 533 W/m2
11:11 45.3 °F 26.2 °F 30.2 in ESE 2 mph 4 mph 47% 0 in 543 W/m2
11:16 45.9 °F 25.7 °F 30.2 in SE 4.9 mph 9 mph 45% 0 in 550 W/m2
11:21 46 °F 25.9 °F 30.2 in East 4 mph 5 mph 45% 0 in 555 W/m2
11:26 46.2 °F 25.5 °F 30.2 in East 0.9 mph 8 mph 44% 0 in 564 W/m2
11:31 46.4 °F 25.7 °F 30.2 in SSE 2.9 mph 5 mph 44% 0 in 573 W/m2
11:36 46.9 °F 26.2 °F 30.2 in ENE 4.9 mph 8 mph 44% 0 in 580 W/m2
11:41 46.6 °F 25.9 °F 30.2 in ENE 2 mph 4 mph 44% 0 in 589 W/m2
11:46 46.2 °F 25.5 °F 30.2 in East 9 mph 9 mph 44% 0 in 592 W/m2
11:51 46.6 °F 26.4 °F 30.2 in NNW 2 mph 5 mph 45% 0 in 603 W/m2
11:56 46.9 °F 26.8 °F 30.2 in North 0.9 mph 8 mph 45% 0 in 610 W/m2
12:01 46.9 °F 25.5 °F 30.2 in East 4 mph 8 mph 43% 0 in 613 W/m2
12:06 46.8 °F 26.1 °F 30.2 in NE 2 mph 7 mph 44% 0 in 619 W/m2
12:11 46.9 °F 25.5 °F 30.2 in NE 2 mph 3 mph 43% 0 in 624 W/m2
12:16 47.1 °F 25.7 °F 30.1 in NE 4.9 mph 7 mph 43% 0 in 635 W/m2
12:21 46.8 °F 25.5 °F 30.1 in NE 4 mph 8 mph 43% 0 in 642 W/m2
12:26 47.1 °F 25.2 °F 30.1 in East 4.9 mph 5 mph 42% 0 in 645 W/m2
12:31 47.7 °F 25.7 °F 30.1 in ESE 6 mph 6 mph 42% 0 in 652 W/m2
12:36 48.6 °F 25.3 °F 30.1 in East 2.9 mph 5 mph 40% 0 in 654 W/m2
12:41 48.7 °F 23.5 °F 30.1 in ESE 8.9 mph 11 mph 37% 0 in 656 W/m2
12:46 48.4 °F 23.4 °F 30.1 in SSE 2.9 mph 9 mph 37% 0 in 661 W/m2
12:51 48.6 °F 24.8 °F 30.1 in SE 2.9 mph 11 mph 39% 0 in 666 W/m2
12:56 48.9 °F 25 °F 30.1 in East 4.9 mph 5 mph 39% 0 in 666 W/m2
13:01 48.9 °F 25 °F 30.1 in NNW 2 mph 5 mph 39% 0 in 666 W/m2
13:06 48.9 °F 25.7 °F 30.1 in SE 0.9 mph 7 mph 40% 0 in 670 W/m2
13:11 49.3 °F 24.8 °F 30.1 in East 2 mph 3 mph 38% 0 in 670 W/m2
13:16 49.8 °F 25.2 °F 30.1 in SE 2 mph 5 mph 38% 0 in 675 W/m2
13:21 49.5 °F 25 °F 30.1 in ESE 4 mph 7 mph 38% 0 in 675 W/m2
13:26 49.3 °F 24.8 °F 30.1 in East 4 mph 5 mph 38% 0 in 671 W/m2
13:31 49.5 °F 25.5 °F 30.1 in ESE 0.9 mph 2 mph 39% 0 in 677 W/m2
13:36 49.3 °F 25.3 °F 30.1 in East 4 mph 6 mph 39% 0 in 675 W/m2
13:41 49.6 °F 25.7 °F 30.1 in ESE 4 mph 6 mph 39% 0 in 673 W/m2
13:46 49.8 °F 25.2 °F 30.1 in ENE 2 mph 3 mph 38% 0 in 677 W/m2
13:51 49.8 °F 25.2 °F 30.1 in SE 2.9 mph 6 mph 38% 0 in 675 W/m2
13:56 49.8 °F 26.4 °F 30.1 in East 2 mph 8 mph 40% 0 in 671 W/m2
14:01 50.2 °F 25.5 °F 30.1 in NE 2 mph 4 mph 38% 0 in 671 W/m2
14:06 50.4 °F 25.7 °F 30.1 in ENE 4.9 mph 8 mph 38% 0 in 668 W/m2
14:11 50 °F 25.3 °F 30.1 in NNE 0.9 mph 5 mph 38% 0 in 666 W/m2
14:16 49.8 °F 24.6 °F 30.1 in ENE 2.9 mph 4 mph 37% 0 in 661 W/m2
14:22 50.4 °F 25.7 °F 30.1 in ENE 2.9 mph 6 mph 38% 0 in 659 W/m2
14:27 50.7 °F 26.6 °F 30.1 in NW 2.9 mph 6 mph 39% 0 in 650 W/m2
14:32 51.3 °F 25.2 °F 30.1 in SE 2 mph 6 mph 36% 0 in 652 W/m2
14:37 51.3 °F 25.2 °F 30.1 in North 0.9 mph 3 mph 36% 0 in 645 W/m2
14:42 51.3 °F 25.2 °F 30.1 in SSW 2.9 mph 3 mph 36% 0 in 643 W/m2
14:47 51.3 °F 25.9 °F 30.1 in SE 2.9 mph 10 mph 37% 0 in 638 W/m2
14:52 51.6 °F 25.5 °F 30.1 in NE 2.9 mph 3 mph 36% 0 in 633 W/m2
14:57 51.4 °F 25.3 °F 30.1 in SE 2.9 mph 7 mph 36% 0 in 628 W/m2
15:02 51.3 °F 24.6 °F 30.1 in Calm   4 mph 35% 0 in 624 W/m2
15:07 51.3 °F 25.2 °F 30.1 in NE 4 mph 4 mph 36% 0 in 621 W/m2
15:12 51.4 °F 24.6 °F 30.1 in NE 0.9 mph 2 mph 35% 0 in 615 W/m2
15:17 51.8 °F 25.7 °F 30.1 in ENE 2 mph 3 mph 36% 0 in 605 W/m2
15:22 52.3 °F 24.8 °F 30.1 in NE 0.9 mph 3 mph 34% 0 in 606 W/m2
15:27 52.5 °F 25.7 °F 30.1 in ENE 4.9 mph 6 mph 35% 0 in 592 W/m2
15:32 52.3 °F 25.5 °F 30.1 in ESE 4 mph 4 mph 35% 0 in 585 W/m2
15:37 52.3 °F 25.5 °F 30.1 in NW 2 mph 5 mph 35% 0 in 575 W/m2
15:42 52.9 °F 25.3 °F 30.1 in NNE 2 mph 2 mph 34% 0 in 570 W/m2
15:47 52.7 °F 25.9 °F 30.1 in NE 2.9 mph 5 mph 35% 0 in 564 W/m2
15:52 53.1 °F 25.3 °F 30.1 in South 2 mph 2 mph 34% 0 in 550 W/m2
15:57 53.1 °F 25.3 °F 30.1 in NW 2.9 mph 5 mph 34% 0 in 545 W/m2
16:02 52.5 °F 24.3 °F 30.1 in ESE 2 mph 2 mph 33% 0 in 536 W/m2
16:07 52.7 °F 25.2 °F 30.1 in NNE 4.9 mph 5 mph 34% 0 in 526 W/m2
16:12 53.1 °F 23.9 °F 30 in West 4 mph 7 mph 32% 0 in 512 W/m2
16:18 53.1 °F 25.3 °F 30 in NE 2 mph 4 mph 34% 0 in 503 W/m2
16:23 53.2 °F 26.2 °F 30 in West 0.9 mph 7 mph 35% 0 in 494 W/m2
16:28 53.2 °F 27 °F 30 in NNE 0.9 mph 2 mph 36% 0 in 485 W/m2
16:33 53.4 °F 25.7 °F 30 in East 4 mph 5 mph 34% 0 in 476 W/m2
16:38 53.2 °F 24.8 °F 30 in ENE 2 mph 5 mph 33% 0 in 462 W/m2
16:43 53.1 °F 24.8 °F 30 in Calm   4 mph 33% 0 in 452 W/m2
16:48 53.4 °F 27.1 °F 30 in ENE 2.9 mph 3 mph 36% 0 in 441 W/m2
16:53 53.8 °F 25.3 °F 30 in NNW 0.9 mph 4 mph 33% 0 in 429 W/m2
16:58 54 °F 26.2 °F 30 in ENE 2 mph 3 mph 34% 0 in 420 W/m2
17:03 54.1 °F 25.7 °F 30 in ESE 2 mph 2 mph 33% 0 in 408 W/m2
17:08 54 °F 25.5 °F 30 in SW 0.9 mph 4 mph 33% 0 in 394 W/m2
17:13 54 °F 26.2 °F 30 in WNW 2.9 mph 4 mph 34% 0 in 385 W/m2
17:18 54.3 °F 27.3 °F 30 in ENE 2.9 mph 5 mph 35% 0 in 373 W/m2
17:23 54.3 °F 26.6 °F 30 in ENE 2 mph 2 mph 34% 0 in 360 W/m2
17:29 54.5 °F 26.8 °F 30 in NNW 0.9 mph 5 mph 34% 0 in 348 W/m2
17:34 54.3 °F 27.3 °F 30 in NNE 0.9 mph 2 mph 35% 0 in 336 W/m2
17:39 54.7 °F 26.8 °F 30 in NW 2 mph 2 mph 34% 0 in 322 W/m2
17:44 54.9 °F 28.4 °F 30 in West 2 mph 3 mph 36% 0 in 309 W/m2
17:49 54.7 °F 26.8 °F 30 in SE 0.9 mph 4 mph 34% 0 in 299 W/m2
17:54 54.5 °F 26.8 °F 30 in North 0.9 mph 6 mph 34% 0 in 283 W/m2
17:59 54.7 °F 26.8 °F 30 in East 0.9 mph 3 mph 34% 0 in 272 W/m2
18:04 54.7 °F 26.1 °F 30 in NNW 0.9 mph 2 mph 33% 0 in 260 W/m2
18:09 55 °F 26.4 °F 30 in NNW 4 mph 5 mph 33% 0 in 250 W/m2
18:14 54.9 °F 25.5 °F 30 in West 0.9 mph 7 mph 32% 0 in 236 W/m2
18:19 54.3 °F 25.2 °F 30 in NNW 4 mph 5 mph 32% 0 in 221 W/m2
18:24 54.3 °F 25.9 °F 30 in WNW 2 mph 3 mph 33% 0 in 204 W/m2
18:29 54.3 °F 25.9 °F 30 in West 6 mph 6 mph 33% 0 in 190 W/m2
18:34 54.3 °F 25.9 °F 30 in NNW 2 mph 2 mph 33% 0 in 174 W/m2
18:39 54.5 °F 26.1 °F 30 in NW 0.9 mph 2 mph 33% 0 in 156 W/m2
18:44 54.9 °F 26.2 °F 30 in NE 0.9 mph 2 mph 33% 0 in 146 W/m2
18:49 54.9 °F 24.8 °F 30 in Calm   3 mph 31% 0 in 128 W/m2
18:54 54.9 °F 25.5 °F 30 in WNW 2 mph 4 mph 32% 0 in 113 W/m2
18:59 54.5 °F 24.4 °F 30 in NNW 2 mph 2 mph 31% 0 in 100 W/m2
19:04 54.1 °F 24.1 °F 30 in NNW 2 mph 2 mph 31% 0 in 86 W/m2
19:09 54 °F 24.8 °F 30 in Calm   3 mph 32% 0 in 76 W/m2
19:14 54.1 °F 25 °F 30 in NE 5 mph 5 mph 32% 0 in 62 W/m2
19:19 54.1 °F 25 °F 30 in Calm   1 mph 32% 0 in 47 W/m2
19:24 54 °F 24.1 °F 30 in Calm   1 mph 31% 0 in 23 W/m2
19:29 53.2 °F 23.4 °F 30 in ENE 2 mph 2 mph 31% 0 in 21 W/m2
19:34 52.9 °F 23 °F 30 in Calm   1 mph 31% 0 in 19 W/m2
19:39 52.3 °F 24.1 °F 30 in Calm     33% 0 in 16 W/m2
19:44 51.6 °F 23.4 °F 30 in Calm   2 mph 33% 0 in 14 W/m2
19:49 51.3 °F 23.9 °F 30 in Calm     34% 0 in 12 W/m2
19:54 50.7 °F 24.1 °F 30 in North 0.9 mph 2 mph 35% 0 in 11 W/m2
19:59 50.4 °F 25.7 °F 30 in Calm     38% 0 in 9 W/m2
20:04 49.6 °F 27 °F 30 in Calm   1 mph 41% 0 in 7 W/m2
20:09 48.7 °F 26.6 °F 30 in WNW 0.9 mph 2 mph 42% 0 in 5 W/m2
20:14 48 °F 27.1 °F 30 in Calm   2 mph 44% 0 in 0 W/m2
20:19 47.1 °F 26.2 °F 30 in WNW 0.9 mph 1 mph 44% 0 in 0 W/m2
20:24 46.4 °F 26.8 °F 30 in WNW 0.9 mph 1 mph 46% 0 in 0 W/m2
20:29 45.7 °F 26.6 °F 30 in Calm     47% 0 in 0 W/m2
20:34 45.1 °F 26.6 °F 30 in Calm     48% 0 in 0 W/m2
20:39 44.6 °F 26.6 °F 30 in Calm     49% 0 in 0 W/m2
20:44 44.1 °F 26.6 °F 30 in Calm   1 mph 50% 0 in 0 W/m2
20:49 43.5 °F 26.6 °F 30 in Calm   1 mph 51% 0 in 0 W/m2
20:54 43 °F 26.6 °F 30 in Calm   1 mph 52% 0 in 0 W/m2
20:59 42.6 °F 26.6 °F 30 in Calm     53% 0 in 0 W/m2
21:04 42.4 °F 27 °F 30 in Calm     54% 0 in 0 W/m2
21:09 42.1 °F 27.1 °F 30 in Calm     55% 0 in 0 W/m2
21:14 41.7 °F 27.1 °F 30 in Calm     56% 0 in 0 W/m2
21:19 41.5 °F 27 °F 30 in Calm     56% 0 in 0 W/m2
21:24 41.2 °F 27.1 °F 30 in Calm     57% 0 in 0 W/m2
21:29 41 °F 27 °F 30 in Calm     57% 0 in 0 W/m2
21:34 40.6 °F 27 °F 30 in Calm     58% 0 in 0 W/m2
21:39 40.5 °F 27.3 °F 30 in Calm     59% 0 in 0 W/m2
21:44 40.3 °F 26.6 °F 30 in Calm     58% 0 in 0 W/m2
21:49 39.9 °F 26.4 °F 30 in Calm     58% 0 in 0 W/m2
21:55 39.7 °F 27 °F 30 in Calm     60% 0 in 0 W/m2
22:00 39.7 °F 27 °F 30 in Calm     60% 0 in 0 W/m2
22:05 39.6 °F 26.8 °F 30 in Calm     60% 0 in 0 W/m2
22:10 39.2 °F 26.4 °F 30 in Calm     60% 0 in 0 W/m2
22:15 39 °F 26.2 °F 30 in Calm     60% 0 in 0 W/m2
22:20 39 °F 25.9 °F 30 in Calm     59% 0 in 0 W/m2
22:25 39 °F 25.9 °F 30 in Calm     59% 0 in 0 W/m2
22:30 38.8 °F 25.7 °F 30 in Calm     59% 0 in 0 W/m2
22:35 38.7 °F 26.1 °F 30 in Calm     60% 0 in 0 W/m2
22:40 38.5 °F 26.2 °F 30 in Calm     61% 0 in 0 W/m2
22:45 38.3 °F 26.1 °F 30 in Calm     61% 0 in 0 W/m2
22:50 37.9 °F 26.1 °F 30 in Calm     62% 0 in 0 W/m2
22:55 37.9 °F 26.1 °F 30 in Calm     62% 0 in 0 W/m2
23:00 37.9 °F 25.7 °F 30 in Calm     61% 0 in 0 W/m2
23:05 37.8 °F 25.9 °F 30 in Calm     62% 0 in 0 W/m2
23:10 37.6 °F 25.7 °F 30 in Calm     62% 0 in 0 W/m2
23:15 37.6 °F 25.7 °F 30 in Calm     62% 0 in 0 W/m2
23:20 37.4 °F 25.9 °F 30 in Calm     63% 0 in 0 W/m2
23:25 37.2 °F 25.7 °F 30 in Calm     63% 0 in 0 W/m2
23:30 37.2 °F 25.7 °F 30 in Calm     63% 0 in 0 W/m2
23:35 37 °F 25.7 °F 30 in Calm     63% 0 in 0 W/m2
23:40 37 °F 25.7 °F 30 in Calm     63% 0 in 0 W/m2
23:45 36.9 °F 25.5 °F 30 in Calm   1 mph 63% 0 in 0 W/m2
23:50 36.7 °F 25.3 °F 30 in WNW 0.9 mph 2 mph 63% 0 in 0 W/m2
23:55 36.7 °F 25.7 °F 30 in Calm   2 mph 64% 0 in 0 W/m2
Juneau County Weather
Compliments of Weather Underground - 2 mb